createdAt,value
2022-09-28T00:01:17.215Z,1.55
2022-09-28T00:03:45.484Z,0.80
2022-09-28T00:06:14.491Z,0.30
2022-09-28T00:08:41.888Z,1.45
2022-09-28T00:11:13.838Z,1.90
2022-09-28T00:13:42.999Z,0.47
2022-09-28T00:16:17.348Z,0.75
2022-09-28T00:18:45.697Z,1.17
2022-09-28T00:21:14.283Z,0.47
2022-09-28T00:24:00.952Z,0.85
2022-09-28T00:26:30.523Z,0.30
2022-09-28T00:29:00.389Z,0.63
2022-09-28T00:31:37.082Z,2.15
2022-09-28T00:34:05.942Z,1.30
2022-09-28T00:36:33.880Z,0.65
2022-09-28T00:39:06.781Z,0.95
2022-09-28T00:41:34.772Z,0.65
2022-09-28T00:44:27.000Z,0.30
2022-09-28T00:47:09.106Z,0.20
2022-09-28T00:49:36.233Z,1.10
2022-09-28T00:52:06.640Z,1.13
2022-09-28T00:54:35.009Z,0.82
2022-09-28T00:57:03.864Z,0.32
2022-09-28T00:59:33.055Z,1.85
2022-09-28T01:02:01.917Z,0.47
2022-09-28T01:04:31.142Z,0.40
2022-09-28T01:07:00.366Z,2.83
2022-09-28T01:09:29.144Z,0.43
2022-09-28T01:11:56.349Z,0.98
2022-09-28T01:14:26.424Z,1.75
2022-09-28T01:17:00.521Z,3.05
2022-09-28T01:20:11.067Z,0.40
2022-09-28T01:23:06.617Z,0.90
2022-09-28T01:26:09.678Z,0.45
2022-09-28T01:28:36.957Z,0.98
2022-09-28T01:31:11.439Z,0.30
2022-09-28T01:34:05.330Z,0.50
2022-09-28T01:36:38.889Z,1.05
2022-09-28T01:39:12.701Z,1.88
2022-09-28T01:41:42.292Z,1.08
2022-09-28T01:44:15.037Z,2.65
2022-09-28T01:46:45.544Z,0.77
2022-09-28T01:49:18.498Z,1.50
2022-09-28T01:52:08.529Z,1.17
2022-09-28T01:54:59.012Z,2.30
2022-09-28T01:57:32.498Z,2.10
2022-09-28T02:00:13.195Z,0.50
2022-09-28T02:02:49.827Z,0.95
2022-09-28T02:05:33.369Z,0.20
2022-09-28T02:08:15.252Z,1.40
2022-09-28T02:11:13.877Z,0.75
2022-09-28T02:14:03.483Z,1.10
2022-09-28T02:16:45.277Z,0.52
2022-09-28T02:19:15.096Z,5.28
2022-09-28T02:21:48.980Z,1.38
2022-09-28T02:24:38.766Z,0.40
2022-09-28T02:27:31.759Z,0.68
2022-09-28T02:29:58.955Z,3.30
2022-09-28T02:32:28.217Z,0.45
2022-09-28T02:34:56.107Z,2.03
2022-09-28T02:37:23.236Z,0.95
2022-09-28T02:39:50.542Z,0.90
2022-09-28T02:42:27.053Z,0.73
2022-09-28T02:44:54.057Z,0.22
2022-09-28T02:47:56.662Z,0.40
2022-09-28T02:50:38.842Z,0.45
2022-09-28T02:53:12.165Z,0.30
2022-09-28T02:55:39.254Z,0.30
2022-09-28T02:58:33.915Z,0.30
2022-09-28T03:01:32.005Z,0.32
2022-09-28T03:04:21.677Z,0.47
2022-09-28T03:07:24.499Z,4.63
2022-09-28T03:10:17.017Z,1.27
2022-09-28T03:12:48.132Z,0.63
2022-09-28T03:15:36.391Z,3.83
2022-09-28T03:18:04.287Z,1.60
2022-09-28T03:20:33.517Z,1.85
2022-09-28T03:25:48.931Z,2.22
2022-09-28T03:28:16.011Z,0.47
2022-09-28T03:30:43.537Z,2.13
2022-09-28T03:33:10.984Z,1.88
2022-09-28T03:35:38.837Z,0.20
2022-09-28T03:38:06.011Z,1.65
2022-09-28T03:40:37.536Z,0.40
2022-09-28T03:43:04.813Z,1.52
2022-09-28T03:45:32.078Z,0.85
2022-09-28T03:47:59.955Z,0.90
2022-09-28T03:50:27.425Z,0.40
2022-09-28T03:52:54.572Z,0.90
2022-09-28T03:55:21.594Z,0.75
2022-09-28T03:57:55.871Z,1.75
2022-09-28T04:00:23.240Z,0.73
2022-09-28T04:02:50.414Z,1.30
2022-09-28T04:05:17.501Z,1.33
2022-09-28T04:07:44.637Z,0.95
2022-09-28T04:10:11.811Z,0.30
2022-09-28T04:12:38.988Z,0.75
2022-09-28T04:15:06.789Z,1.13
2022-09-28T04:17:39.216Z,0.30
2022-09-28T04:20:11.260Z,0.25
2022-09-28T04:22:48.393Z,0.20
2022-09-28T04:25:15.732Z,0.45
2022-09-28T04:28:01.558Z,1.75
2022-09-28T04:30:30.015Z,1.70
2022-09-28T04:32:57.135Z,0.30
2022-09-28T04:35:24.408Z,1.70
2022-09-28T04:37:51.995Z,1.35
2022-09-28T04:40:19.141Z,0.93
2022-09-28T04:42:54.064Z,2.47
2022-09-28T04:45:21.715Z,1.05
2022-09-28T04:47:49.714Z,2.53
2022-09-28T04:50:37.028Z,2.90
2022-09-28T04:53:15.359Z,0.77
2022-09-28T04:55:45.378Z,0.98
2022-09-28T04:58:12.529Z,0.65
2022-09-28T05:00:40.515Z,3.30
2022-09-28T05:03:19.393Z,0.50
2022-09-28T05:08:42.236Z,1.38
2022-09-28T05:11:12.862Z,0.47
2022-09-28T05:13:42.412Z,0.30
2022-09-28T05:16:10.280Z,2.38
2022-09-28T05:18:56.804Z,2.05
2022-09-28T05:21:25.541Z,3.33
2022-09-28T05:23:56.153Z,1.15
2022-09-28T05:26:24.626Z,0.68
2022-09-28T05:28:51.820Z,1.05
2022-09-28T05:31:53.491Z,3.13
2022-09-28T05:34:32.962Z,0.82
2022-09-28T05:37:00.116Z,0.50
2022-09-28T05:39:27.204Z,2.17
2022-09-28T05:41:55.982Z,2.78
2022-09-28T05:44:24.844Z,1.30
2022-09-28T05:46:54.816Z,1.90
2022-09-28T05:49:23.161Z,0.75
2022-09-28T05:51:50.175Z,1.75
2022-09-28T05:54:17.483Z,1.67
2022-09-28T05:56:47.066Z,2.03
2022-09-28T05:59:14.406Z,1.40
2022-09-28T06:01:41.986Z,0.60
2022-09-28T06:04:10.862Z,1.75
2022-09-28T06:06:38.927Z,1.77
2022-09-28T06:09:06.114Z,2.55
2022-09-28T06:11:42.052Z,1.38
2022-09-28T06:14:23.763Z,5.82
2022-09-28T06:16:50.962Z,0.38
2022-09-28T06:19:18.608Z,1.45
2022-09-28T06:22:09.148Z,0.52
2022-09-28T06:24:45.388Z,1.20
2022-09-28T06:27:12.596Z,0.52
2022-09-28T06:29:39.643Z,0.68
2022-09-28T06:32:07.744Z,0.40
2022-09-28T06:34:36.875Z,1.30
2022-09-28T06:37:04.884Z,2.22
2022-09-28T06:39:32.660Z,1.05
2022-09-28T06:42:04.740Z,0.43
2022-09-28T06:44:52.539Z,0.77
2022-09-28T06:47:42.937Z,0.30
2022-09-28T06:50:34.833Z,0.60
2022-09-28T06:53:29.008Z,0.20
2022-09-28T06:56:10.572Z,0.22
2022-09-28T06:58:38.199Z,0.10
2022-09-28T07:01:06.561Z,0.10
2022-09-28T07:03:43.800Z,0.65
2022-09-28T07:06:12.544Z,0.10
2022-09-28T07:09:22.321Z,1.02
2022-09-28T07:12:13.585Z,0.20
2022-09-28T07:14:59.591Z,0.20
2022-09-28T07:17:28.862Z,0.88
2022-09-28T07:20:05.715Z,0.40
2022-09-28T07:22:43.456Z,0.47
2022-09-28T07:25:16.229Z,1.35
2022-09-28T07:28:03.972Z,0.20
2022-09-28T07:31:03.773Z,0.45
2022-09-28T07:33:59.728Z,0.85
2022-09-28T07:36:35.365Z,1.20
2022-09-28T07:39:04.266Z,0.98
2022-09-28T07:41:34.156Z,0.68
2022-09-28T07:44:07.192Z,0.70
2022-09-28T07:46:37.201Z,2.25
2022-09-28T07:49:12.281Z,0.30
2022-09-28T07:51:58.355Z,2.47
2022-09-28T07:54:25.506Z,1.17
2022-09-28T07:57:12.839Z,1.25
2022-09-28T08:00:05.151Z,1.20
2022-09-28T08:02:50.203Z,1.70
2022-09-28T08:05:22.497Z,2.38
2022-09-28T08:07:49.567Z,1.02
2022-09-28T08:10:17.634Z,0.43
2022-09-28T08:12:47.295Z,1.70
2022-09-28T08:15:14.561Z,1.02
2022-09-28T08:17:53.838Z,1.33
2022-09-28T08:20:41.172Z,1.05
2022-09-28T08:23:09.881Z,2.58
2022-09-28T08:25:38.510Z,5.78
2022-09-28T08:28:07.410Z,3.58
2022-09-28T08:30:40.614Z,1.02
2022-09-28T08:36:30.050Z,0.77
2022-09-28T08:39:34.576Z,3.63
2022-09-28T08:42:31.915Z,0.50
2022-09-28T08:45:30.564Z,4.00
2022-09-28T08:48:38.030Z,1.60
2022-09-28T08:51:50.756Z,5.75
2022-09-28T08:54:49.581Z,2.15
2022-09-28T08:58:01.128Z,1.02
2022-09-28T09:00:49.159Z,2.05
2022-09-28T09:03:31.476Z,0.55
2022-09-28T09:06:57.777Z,2.47
2022-09-28T09:09:59.450Z,2.13
2022-09-28T09:12:33.858Z,0.43
2022-09-28T09:15:06.786Z,2.73
2022-09-28T09:18:08.028Z,0.85
2022-09-28T09:21:16.563Z,2.67
2022-09-28T09:23:44.646Z,3.13
2022-09-28T09:26:24.610Z,1.48
2022-09-28T09:29:31.299Z,2.50
2022-09-28T09:32:17.528Z,4.55
2022-09-28T09:38:16.896Z,2.38
2022-09-28T09:41:04.254Z,3.88
2022-09-28T09:44:08.668Z,2.03
2022-09-28T09:47:08.168Z,4.10
2022-09-28T09:50:05.356Z,2.47
2022-09-28T09:52:55.903Z,4.78
2022-09-28T09:55:59.900Z,2.47
2022-09-28T09:59:05.386Z,2.75
2022-09-28T10:01:44.181Z,2.10
2022-09-28T10:04:42.119Z,4.03
2022-09-28T10:07:49.418Z,2.05
2022-09-28T10:10:59.093Z,1.23
2022-09-28T10:13:33.081Z,5.35
2022-09-28T10:16:06.762Z,4.10
2022-09-28T10:18:39.193Z,3.15
2022-09-28T10:21:47.690Z,3.17
2022-09-28T10:24:45.388Z,2.15
2022-09-28T10:27:20.079Z,0.95
2022-09-28T10:30:09.784Z,1.45
2022-09-28T10:32:44.589Z,4.15
2022-09-28T10:35:15.030Z,1.58
2022-09-28T10:38:18.977Z,0.90
2022-09-28T10:41:11.928Z,2.47
2022-09-28T10:44:08.903Z,1.58
2022-09-28T10:46:58.486Z,1.67
2022-09-28T10:49:28.709Z,1.35
2022-09-28T10:51:58.764Z,1.95
2022-09-28T10:54:31.631Z,1.70
2022-09-28T10:57:00.987Z,2.90
2022-09-28T10:59:47.210Z,2.30
2022-09-28T11:02:35.679Z,2.28
2022-09-28T11:05:29.067Z,1.35
2022-09-28T11:08:07.184Z,3.78
2022-09-28T11:10:42.939Z,1.77
2022-09-28T11:13:14.483Z,0.75
2022-09-28T11:15:46.943Z,1.48
2022-09-28T11:18:31.569Z,1.65
2022-09-28T11:21:15.274Z,2.88
2022-09-28T11:24:19.344Z,4.70
2022-09-28T11:26:54.458Z,2.65
2022-09-28T11:29:39.093Z,1.88
2022-09-28T11:32:42.008Z,2.45
2022-09-28T11:35:50.606Z,2.95
2022-09-28T11:38:36.550Z,2.92
2022-09-28T11:41:41.293Z,2.50
2022-09-28T11:44:23.411Z,3.85
2022-09-28T11:47:17.430Z,1.98
2022-09-28T11:50:11.051Z,4.95
2022-09-28T11:52:46.150Z,7.85
2022-09-28T11:55:51.765Z,6.60
2022-09-28T11:58:27.844Z,3.50
2022-09-28T12:01:07.648Z,4.25
2022-09-28T12:04:01.636Z,6.13
2022-09-28T12:06:41.286Z,3.65
2022-09-28T12:09:25.054Z,7.55
2022-09-28T12:12:38.948Z,5.32
2022-09-28T12:16:07.743Z,5.72
2022-09-28T12:18:51.346Z,5.88
2022-09-28T12:21:24.418Z,9.93
2022-09-28T12:24:00.852Z,6.82
2022-09-28T12:26:44.488Z,6.10
2022-09-28T12:29:16.252Z,6.72
2022-09-28T12:31:57.015Z,3.45
2022-09-28T12:34:24.662Z,3.38
2022-09-28T12:37:19.689Z,4.53
2022-09-28T12:40:06.408Z,6.10
2022-09-28T12:42:58.748Z,4.65
2022-09-28T12:46:11.057Z,6.80
2022-09-28T12:52:23.245Z,8.82
2022-09-28T12:55:36.209Z,4.60
2022-09-28T12:58:24.562Z,7.90
2022-09-28T13:01:32.728Z,7.18
2022-09-28T13:04:30.728Z,6.13
2022-09-28T13:07:09.825Z,7.25
2022-09-28T13:10:11.207Z,5.38
2022-09-28T13:12:54.380Z,7.82
2022-09-28T13:15:24.940Z,6.45
2022-09-28T13:18:17.211Z,7.30
2022-09-28T13:21:06.487Z,5.45
2022-09-28T13:23:42.434Z,7.40
2022-09-28T13:26:14.539Z,10.20
2022-09-28T13:28:43.675Z,3.55
2022-09-28T13:31:11.865Z,7.30
2022-09-28T13:33:41.276Z,5.93
2022-09-28T13:36:30.505Z,4.57
2022-09-28T13:39:01.556Z,8.32
2022-09-28T13:41:33.385Z,7.55
2022-09-28T13:44:21.046Z,6.75
2022-09-28T13:47:10.223Z,3.88
2022-09-28T13:49:55.609Z,3.65
2022-09-28T13:52:47.577Z,10.25
2022-09-28T13:55:33.431Z,7.38
2022-09-28T13:58:05.587Z,4.78
2022-09-28T14:00:45.549Z,4.60
2022-09-28T14:03:27.169Z,3.13
2022-09-28T14:06:11.116Z,7.65
2022-09-28T14:08:58.469Z,6.65
2022-09-28T14:11:42.621Z,7.47
2022-09-28T14:14:11.943Z,4.90
2022-09-28T14:16:40.476Z,3.55
2022-09-28T14:19:10.551Z,9.18
2022-09-28T14:21:49.697Z,4.25
2022-09-28T14:24:45.145Z,6.50
2022-09-28T14:27:20.420Z,6.78
2022-09-28T14:32:19.979Z,3.97
2022-09-28T14:35:08.395Z,5.63
2022-09-28T14:37:58.310Z,11.95
2022-09-28T14:41:04.226Z,8.05
2022-09-28T14:43:46.351Z,6.95
2022-09-28T14:46:19.336Z,9.15
2022-09-28T14:49:03.505Z,8.00
2022-09-28T14:51:30.526Z,3.50
2022-09-28T14:54:19.201Z,6.30
2022-09-28T14:56:53.419Z,6.00
2022-09-28T14:59:36.323Z,4.53
2022-09-28T15:02:13.512Z,8.48
2022-09-28T15:05:02.344Z,11.70
2022-09-28T15:07:42.429Z,7.63
2022-09-28T15:10:32.065Z,8.00
2022-09-28T15:13:01.943Z,6.10
2022-09-28T15:15:40.886Z,6.78
2022-09-28T15:18:17.312Z,4.38
2022-09-28T15:20:51.302Z,6.90
2022-09-28T15:23:30.436Z,4.32
2022-09-28T15:25:57.638Z,5.53
2022-09-28T15:28:26.077Z,4.85
2022-09-28T15:31:00.635Z,7.25
2022-09-28T15:33:53.759Z,8.73
2022-09-28T15:36:25.541Z,7.28
2022-09-28T15:39:10.762Z,4.13
2022-09-28T15:41:38.009Z,5.97
2022-09-28T15:44:10.819Z,6.95
2022-09-28T15:46:44.267Z,8.98
2022-09-28T15:49:28.130Z,8.23
2022-09-28T15:51:56.232Z,8.15
2022-09-28T15:54:25.291Z,6.03
2022-09-28T15:57:02.703Z,8.00
2022-09-28T15:59:39.799Z,5.30
2022-09-28T16:02:17.454Z,9.80
2022-09-28T16:04:50.659Z,9.25
2022-09-28T16:07:28.682Z,5.43
2022-09-28T16:09:55.968Z,8.35
2022-09-28T16:12:25.842Z,8.43
2022-09-28T16:14:56.039Z,5.13
2022-09-28T16:17:33.461Z,12.45
2022-09-28T16:20:17.951Z,9.18
2022-09-28T16:22:45.394Z,5.32
2022-09-28T16:25:24.793Z,6.75
2022-09-28T16:27:55.908Z,8.38
2022-09-28T16:30:29.809Z,9.88
2022-09-28T16:32:59.436Z,9.68
2022-09-28T16:35:42.523Z,6.18
2022-09-28T16:38:17.838Z,10.88
2022-09-28T16:43:26.968Z,9.55
2022-09-28T16:46:16.038Z,7.35
2022-09-28T16:48:51.993Z,9.60
2022-09-28T16:51:21.640Z,8.38
2022-09-28T16:54:07.680Z,6.32
2022-09-28T16:56:37.227Z,6.18
2022-09-28T16:59:04.763Z,7.60
2022-09-28T17:01:31.990Z,7.35
2022-09-28T17:03:59.052Z,6.82
2022-09-28T17:06:27.082Z,6.53
2022-09-28T17:08:58.505Z,5.72
2022-09-28T17:11:25.795Z,6.72
2022-09-28T17:13:59.149Z,7.32
2022-09-28T17:19:24.701Z,3.70
2022-09-28T17:21:53.166Z,8.85
2022-09-28T17:24:20.943Z,5.25
2022-09-28T17:26:51.206Z,7.32
2022-09-28T17:29:19.256Z,7.50
2022-09-28T17:31:47.862Z,10.88
2022-09-28T17:34:16.378Z,8.38
2022-09-28T17:36:44.854Z,6.32
2022-09-28T17:39:14.473Z,9.70
2022-09-28T17:41:41.885Z,8.10
2022-09-28T17:44:09.326Z,8.57
2022-09-28T17:46:46.019Z,8.90
2022-09-28T17:49:13.971Z,10.18
2022-09-28T17:51:41.190Z,8.32
2022-09-28T17:54:08.770Z,8.43
2022-09-28T17:56:36.753Z,8.25
2022-09-28T17:59:10.874Z,11.50
2022-09-28T18:01:39.830Z,9.52
2022-09-28T18:04:08.932Z,8.98
2022-09-28T18:06:37.465Z,9.55
2022-09-28T18:09:05.309Z,6.38
2022-09-28T18:11:33.537Z,7.88
2022-09-28T18:14:00.969Z,7.45
2022-09-28T18:16:29.031Z,9.10
2022-09-28T18:18:56.289Z,7.82
2022-09-28T18:21:23.557Z,6.22
2022-09-28T18:23:50.584Z,5.35
2022-09-28T18:26:19.697Z,8.02
2022-09-28T18:28:47.235Z,4.00
2022-09-28T18:31:15.701Z,6.00
2022-09-28T18:33:43.463Z,9.00
2022-09-28T18:36:10.840Z,10.23
2022-09-28T18:38:38.462Z,8.70
2022-09-28T18:41:15.767Z,10.60
2022-09-28T18:43:55.630Z,4.93
2022-09-28T18:46:25.327Z,6.30
2022-09-28T18:48:52.423Z,10.35
2022-09-28T18:51:22.226Z,7.63
2022-09-28T18:53:49.286Z,8.00
2022-09-28T18:56:21.149Z,8.27
2022-09-28T18:58:51.762Z,4.43
2022-09-28T19:01:36.261Z,9.70
2022-09-28T19:04:06.600Z,7.57
2022-09-28T19:06:34.941Z,6.85
2022-09-28T19:09:02.050Z,11.23
2022-09-28T19:11:29.350Z,8.50
2022-09-28T19:13:56.492Z,7.40
2022-09-28T19:16:26.248Z,8.07
2022-09-28T19:18:53.796Z,9.90
2022-09-28T19:21:21.772Z,5.15
2022-09-28T19:23:49.937Z,9.55
2022-09-28T19:26:26.975Z,5.97
2022-09-28T19:28:57.948Z,4.97
2022-09-28T19:31:26.301Z,5.20
2022-09-28T19:33:53.321Z,4.05
2022-09-28T19:36:23.739Z,5.57
2022-09-28T19:38:52.566Z,4.70
2022-09-28T19:41:43.045Z,2.30
2022-09-28T19:44:26.887Z,5.53
2022-09-28T19:47:09.962Z,5.93
2022-09-28T19:49:39.234Z,8.38
2022-09-28T19:52:17.306Z,3.92
2022-09-28T19:54:54.492Z,8.88
2022-09-28T19:57:22.688Z,4.05
2022-09-28T19:59:52.631Z,5.47
2022-09-28T20:02:21.244Z,3.78
2022-09-28T20:04:48.782Z,4.85
2022-09-28T20:07:15.826Z,4.72
2022-09-28T20:09:42.877Z,5.45
2022-09-28T20:12:09.933Z,6.15
2022-09-28T20:14:40.129Z,4.75
2022-09-28T20:17:08.075Z,5.30
2022-09-28T20:19:35.376Z,5.88
2022-09-28T20:22:02.999Z,4.25
2022-09-28T20:24:31.461Z,5.80
2022-09-28T20:26:58.954Z,9.50
2022-09-28T20:29:26.815Z,7.07
2022-09-28T20:31:53.953Z,5.50
2022-09-28T20:34:21.379Z,6.45
2022-09-28T20:36:48.486Z,6.13
2022-09-28T20:39:15.658Z,8.07
2022-09-28T20:41:43.126Z,13.30
2022-09-28T20:44:10.260Z,10.38
2022-09-28T20:46:38.231Z,4.88
2022-09-28T20:49:05.845Z,8.48
2022-09-28T20:51:33.228Z,4.43
2022-09-28T20:54:00.445Z,6.78
2022-09-28T20:56:30.721Z,6.28
2022-09-28T20:58:58.074Z,5.95
2022-09-28T21:01:27.613Z,5.82
2022-09-28T21:03:55.807Z,3.45
2022-09-28T21:06:25.470Z,5.05
2022-09-28T21:08:52.828Z,6.05
2022-09-28T21:11:22.625Z,6.78
2022-09-28T21:13:53.881Z,7.28
2022-09-28T21:16:21.579Z,11.13
2022-09-28T21:18:48.673Z,6.38
2022-09-28T21:21:18.263Z,10.82
2022-09-28T21:23:46.077Z,6.97
2022-09-28T21:26:16.131Z,2.80
2022-09-28T21:28:44.858Z,3.72
2022-09-28T21:31:12.940Z,5.28
2022-09-28T21:33:40.083Z,4.28
2022-09-28T21:36:08.053Z,8.98
2022-09-28T21:38:35.876Z,4.43
2022-09-28T21:41:03.280Z,5.57
2022-09-28T21:43:31.819Z,9.32
2022-09-28T21:45:59.002Z,7.15
2022-09-28T21:48:29.032Z,10.40
2022-09-28T21:51:01.687Z,6.38
2022-09-28T21:53:31.506Z,5.32
2022-09-28T21:56:00.234Z,8.68
2022-09-28T21:58:29.459Z,3.38
2022-09-28T22:01:08.854Z,6.75
2022-09-28T22:03:36.684Z,6.97
2022-09-28T22:06:04.814Z,12.15
2022-09-28T22:08:32.656Z,4.43
2022-09-28T22:11:03.303Z,7.00
2022-09-28T22:13:32.499Z,4.90
2022-09-28T22:16:00.337Z,3.72
2022-09-28T22:18:31.078Z,2.90
2022-09-28T22:21:25.839Z,7.38
2022-09-28T22:23:53.566Z,3.60
2022-09-28T22:26:25.691Z,9.02
2022-09-28T22:28:56.352Z,3.30
2022-09-28T22:31:29.727Z,6.10
2022-09-28T22:33:57.519Z,5.05
2022-09-28T22:36:25.645Z,8.73
2022-09-28T22:38:54.627Z,7.80
2022-09-28T22:41:22.253Z,4.75
2022-09-28T22:43:51.184Z,6.30
2022-09-28T22:46:25.184Z,6.45
2022-09-28T22:48:54.830Z,4.10
2022-09-28T22:51:22.775Z,6.65
2022-09-28T22:53:50.276Z,4.65
2022-09-28T22:56:18.950Z,3.65
2022-09-28T22:58:46.925Z,4.28
2022-09-28T23:01:28.634Z,2.97
2022-09-28T23:03:56.851Z,6.70
2022-09-28T23:06:26.828Z,5.13
2022-09-28T23:08:53.904Z,5.25
2022-09-28T23:11:21.778Z,4.78
2022-09-28T23:13:54.909Z,5.55
2022-09-28T23:16:23.662Z,6.03
2022-09-28T23:18:51.009Z,4.07
2022-09-28T23:21:20.300Z,2.83
2022-09-28T23:23:55.525Z,3.95
2022-09-28T23:28:51.753Z,3.83
2022-09-28T23:31:22.312Z,6.28
2022-09-28T23:33:50.452Z,5.43
2022-09-28T23:36:18.331Z,7.38
2022-09-28T23:38:45.501Z,4.18
2022-09-28T23:41:12.660Z,5.53
2022-09-28T23:43:39.708Z,2.83
2022-09-28T23:46:07.180Z,4.45
2022-09-28T23:48:34.748Z,6.82
2022-09-28T23:51:02.486Z,6.03
2022-09-28T23:53:30.248Z,6.18
2022-09-28T23:55:57.592Z,4.10
2022-09-28T23:58:25.814Z,5.70
